Time;durP1;ratioP1;P1;durP2;ratioP2;P2;SDS_P1;SDS_P2;PMS_P1;PMS_P2;Temp;Humidity;BMP_temperature;BMP_pressure;BME280_temperature;BME280_humidity;BME280_pressure;Samples;Min_cycle;Max_cycle;Signal;HPM_P1;HPM_P2
2023/06/30 00:00:12;;;;;;;6.20;5.20;;;18.10;99.90;;;;;;5074139;28;20213;-79
2023/06/30 00:02:46;;;;;;;6.20;4.93;;;18.10;99.90;;;;;;5074483;28;20194;-76
2023/06/30 00:05:16;;;;;;;6.53;4.60;;;18.10;99.90;;;;;;5074228;28;20328;-76
2023/06/30 00:07:43;;;;;;;8.10;5.50;;;18.00;99.90;;;;;;5074617;28;20230;-77
2023/06/30 00:10:10;;;;;;;6.53;4.97;;;18.00;99.90;;;;;;5074665;28;20252;-76
2023/06/30 00:12:37;;;;;;;5.43;4.83;;;18.00;99.90;;;;;;5074912;28;20284;-77
2023/06/30 00:15:05;;;;;;;6.77;5.20;;;17.90;99.90;;;;;;5092420;28;20228;-77
2023/06/30 00:17:32;;;;;;;6.47;4.90;;;17.90;99.90;;;;;;5057116;28;20221;-77
2023/06/30 00:19:59;;;;;;;6.47;5.10;;;17.90;99.90;;;;;;5074180;28;20254;-78
2023/06/30 00:22:26;;;;;;;6.43;5.13;;;17.90;99.90;;;;;;5092363;28;20189;-77
2023/06/30 00:24:55;;;;;;;6.17;5.20;;;17.90;99.90;;;;;;5092197;28;20209;-77
2023/06/30 00:27:25;;;;;;;5.90;4.70;;;17.80;99.90;;;;;;5074051;28;20201;-77
2023/06/30 00:29:52;;;;;;;8.37;5.50;;;17.80;99.90;;;;;;5057455;28;20198;-77
2023/06/30 00:32:19;;;;;;;7.87;5.60;;;17.80;99.90;;;;;;5092247;28;20618;-79
2023/06/30 00:34:46;;;;;;;6.33;5.00;;;17.80;99.90;;;;;;5092256;28;20220;-78
2023/06/30 00:37:13;;;;;;;7.57;5.40;;;17.70;99.90;;;;;;5092240;28;20251;-79
2023/06/30 00:39:40;;;;;;;6.43;5.03;;;17.70;99.90;;;;;;5074084;28;20197;-78
2023/06/30 00:42:08;;;;;;;6.77;5.30;;;17.70;99.90;;;;;;5073819;28;20311;-79
2023/06/30 00:44:35;;;;;;;7.80;5.37;;;17.70;99.90;;;;;;5092427;28;20213;-79
2023/06/30 00:47:02;;;;;;;7.33;5.73;;;17.70;99.90;;;;;;5073902;28;20233;-78
2023/06/30 00:49:31;;;;;;;7.37;5.40;;;17.70;99.90;;;;;;5074019;28;20644;-79
2023/06/30 00:51:59;;;;;;;10.10;5.67;;;17.60;99.90;;;;;;5073908;28;20698;-78
2023/06/30 00:54:27;;;;;;;7.20;5.20;;;17.60;99.90;;;;;;5092071;28;20188;-78
2023/06/30 00:56:55;;;;;;;6.67;5.30;;;17.50;99.90;;;;;;5073770;28;20316;-78
2023/06/30 00:59:22;;;;;;;7.00;5.47;;;17.40;99.90;;;;;;5074231;28;20292;-79
2023/06/30 01:01:56;;;;;;;6.23;5.47;;;17.40;99.90;;;;;;5073832;28;20213;-78
2023/06/30 01:04:37;;;;;;;6.33;5.23;;;17.40;99.90;;;;;;5074010;28;20173;-78
2023/06/30 01:07:34;;;;;;;7.27;5.33;;;17.30;99.90;;;;;;5073719;28;20275;-78
2023/06/30 01:10:07;;;;;;;7.60;5.90;;;17.40;99.90;;;;;;5056643;28;20240;-79
2023/06/30 01:12:35;;;;;;;9.27;5.93;;;17.30;99.90;;;;;;5073809;28;20649;-79
2023/06/30 01:15:03;;;;;;;7.63;5.73;;;17.30;99.90;;;;;;5073869;28;20292;-78
2023/06/30 01:17:31;;;;;;;7.73;5.77;;;17.20;99.90;;;;;;5091966;28;20185;-75
2023/06/30 01:20:00;;;;;;;7.80;5.73;;;17.20;99.90;;;;;;5057078;28;20198;-79
2023/06/30 01:22:33;;;;;;;7.83;5.67;;;17.20;99.90;;;;;;5092208;28;20533;-79
2023/06/30 01:25:06;;;;;;;7.90;5.90;;;17.10;99.90;;;;;;5091811;28;20246;-78
2023/06/30 01:27:36;;;;;;;7.00;5.60;;;17.10;99.90;;;;;;5058657;28;20198;-79
2023/06/30 01:30:05;;;;;;;6.00;5.37;;;17.10;99.90;;;;;;5060848;28;20686;-76
2023/06/30 01:32:33;;;;;;;7.70;5.77;;;17.10;99.90;;;;;;5077187;28;20225;-78
2023/06/30 01:35:00;;;;;;;10.67;6.00;;;17.00;99.90;;;;;;5077271;28;20202;-78
2023/06/30 01:37:27;;;;;;;9.90;6.00;;;17.00;99.90;;;;;;5077168;28;20289;-78
2023/06/30 01:39:54;;;;;;;7.97;5.73;;;17.00;99.90;;;;;;5060894;28;20296;-77
2023/06/30 01:42:21;;;;;;;8.57;5.70;;;16.90;99.90;;;;;;5077586;28;20189;-78
2023/06/30 01:44:49;;;;;;;7.43;6.13;;;16.80;99.90;;;;;;5059887;28;20197;-78
2023/06/30 01:47:16;;;;;;;9.37;6.23;;;16.70;99.90;;;;;;5077229;28;20265;-77
2023/06/30 01:49:44;;;;;;;8.43;5.80;;;16.70;99.90;;;;;;5095101;28;20551;-78
2023/06/30 01:52:11;;;;;;;8.07;6.07;;;16.70;99.90;;;;;;5076878;28;20370;-79
2023/06/30 01:54:38;;;;;;;8.20;6.33;;;16.70;99.90;;;;;;5077009;28;20225;-79
2023/06/30 01:57:05;;;;;;;10.67;5.73;;;16.70;99.90;;;;;;5076885;28;20248;-77
2023/06/30 01:59:32;;;;;;;9.37;6.43;;;16.70;99.90;;;;;;5076842;28;20284;-78
2023/06/30 02:01:59;;;;;;;9.90;6.60;;;16.70;99.90;;;;;;5076872;28;20304;-78
2023/06/30 02:04:26;;;;;;;9.83;6.53;;;16.60;99.90;;;;;;5076919;28;20707;-77
2023/06/30 02:06:55;;;;;;;11.07;6.40;;;16.60;99.90;;;;;;5076656;28;20240;-77
2023/06/30 02:09:22;;;;;;;8.17;6.60;;;16.60;99.90;;;;;;5094661;28;20254;-77
2023/06/30 02:12:04;;;;;;;9.93;6.77;;;16.60;99.90;;;;;;5094711;28;20575;-78
2023/06/30 02:14:31;;;;;;;8.37;6.60;;;16.50;99.90;;;;;;5094836;28;20229;-78
2023/06/30 02:16:58;;;;;;;8.47;6.57;;;16.50;99.90;;;;;;5076221;28;20316;-77
2023/06/30 02:19:25;;;;;;;11.07;7.23;;;16.50;99.90;;;;;;5094670;28;20724;-77
2023/06/30 02:21:52;;;;;;;10.37;6.53;;;16.50;99.90;;;;;;5076148;28;20890;-77
2023/06/30 02:24:19;;;;;;;8.80;6.43;;;16.40;99.90;;;;;;5076424;28;20220;-77
2023/06/30 02:26:45;;;;;;;9.70;6.50;;;16.40;99.90;;;;;;5094325;28;20247;-77
2023/06/30 02:29:13;;;;;;;9.73;6.60;;;16.40;99.90;;;;;;5076339;28;20294;-77
2023/06/30 02:31:39;;;;;;;8.87;6.37;;;16.40;99.90;;;;;;5075922;28;20313;-77
2023/06/30 02:34:06;;;;;;;9.17;6.53;;;16.40;99.90;;;;;;5094159;28;20196;-77
2023/06/30 02:36:33;;;;;;;8.73;6.47;;;16.40;99.90;;;;;;5076041;28;20349;-77
2023/06/30 02:39:00;;;;;;;9.63;6.70;;;16.40;99.90;;;;;;5058457;28;20225;-77
2023/06/30 02:41:27;;;;;;;9.40;6.67;;;16.40;99.90;;;;;;5076290;28;20214;-77
2023/06/30 02:43:54;;;;;;;9.37;6.87;;;16.30;99.90;;;;;;5094241;28;20596;-77
2023/06/30 02:46:21;;;;;;;10.27;6.53;;;16.30;99.90;;;;;;5093587;28;20271;-77
2023/06/30 02:48:48;;;;;;;8.80;6.10;;;16.30;99.90;;;;;;5075604;28;20300;-77
2023/06/30 02:51:16;;;;;;;8.23;6.63;;;16.30;99.90;;;;;;5075490;28;20236;-77
2023/06/30 02:53:43;;;;;;;8.80;6.87;;;16.30;99.90;;;;;;5075445;28;20756;-77
2023/06/30 02:56:10;;;;;;;9.13;7.30;;;16.30;99.90;;;;;;5075701;28;20241;-77
2023/06/30 02:58:39;;;;;;;7.93;6.60;;;16.30;99.90;;;;;;5075472;28;20645;-77
2023/06/30 03:01:07;;;;;;;7.60;6.37;;;16.30;99.90;;;;;;5075548;28;20224;-77
2023/06/30 03:03:35;;;;;;;9.23;6.77;;;16.30;99.90;;;;;;5075700;28;20203;-78
2023/06/30 03:06:03;;;;;;;9.27;6.67;;;16.30;99.90;;;;;;5058972;28;20738;-77
2023/06/30 03:08:30;;;;;;;8.97;6.90;;;16.30;99.90;;;;;;5075521;28;20237;-78
2023/06/30 03:10:57;;;;;;;10.47;6.87;;;16.30;99.90;;;;;;5075476;28;20270;-78
2023/06/30 03:13:23;;;;;;;9.00;7.23;;;16.30;99.90;;;;;;5075553;28;20205;-77
2023/06/30 03:15:50;;;;;;;13.07;6.93;;;16.30;99.90;;;;;;5075328;28;20224;-78
2023/06/30 03:18:17;;;;;;;12.13;7.47;;;16.40;99.90;;;;;;5075209;28;20278;-77
2023/06/30 03:20:44;;;;;;;9.23;7.37;;;16.40;99.90;;;;;;5093860;28;20219;-78
2023/06/30 03:23:14;;;;;;;9.50;7.37;;;16.40;99.90;;;;;;5075553;28;20194;-78
2023/06/30 03:25:41;;;;;;;9.23;7.03;;;16.30;99.90;;;;;;5075280;28;20310;-78
2023/06/30 03:28:09;;;;;;;9.80;7.53;;;16.30;99.90;;;;;;5075057;28;20231;-77
2023/06/30 03:30:36;;;;;;;9.43;7.10;;;16.30;99.90;;;;;;5093341;28;20209;-78
2023/06/30 03:33:03;;;;;;;10.60;7.60;;;16.30;99.90;;;;;;5093477;28;20196;-77
2023/06/30 03:35:30;;;;;;;12.80;7.30;;;16.40;99.90;;;;;;5074871;28;20209;-78
2023/06/30 03:37:57;;;;;;;10.00;7.10;;;16.40;99.90;;;;;;5074935;28;20194;-77
2023/06/30 03:40:24;;;;;;;9.93;7.23;;;16.40;99.90;;;;;;5074978;28;20245;-77
2023/06/30 03:42:51;;;;;;;8.50;7.20;;;16.40;99.90;;;;;;5074753;28;20197;-77
2023/06/30 03:45:18;;;;;;;8.80;7.10;;;16.30;99.90;;;;;;5074470;28;20243;-77
2023/06/30 03:47:45;;;;;;;14.07;7.60;;;16.40;99.90;;;;;;5071130;28;20273;-77
2023/06/30 03:50:11;;;;;;;12.10;7.83;;;16.40;99.90;;;;;;5070941;28;20214;-77
2023/06/30 03:52:38;;;;;;;9.93;7.63;;;16.40;99.90;;;;;;5072907;28;20194;-77
2023/06/30 03:55:06;;;;;;;14.27;8.13;;;16.50;99.90;;;;;;5071178;28;20211;-76
2023/06/30 03:57:33;;;;;;;11.40;7.53;;;16.60;99.90;;;;;;5071090;28;20277;-77
2023/06/30 04:00:00;;;;;;;10.50;7.90;;;16.60;99.90;;;;;;5072601;28;20210;-77
2023/06/30 04:02:27;;;;;;;9.97;7.60;;;16.70;99.90;;;;;;5072487;28;20186;-78
2023/06/30 04:04:54;;;;;;;10.10;7.77;;;16.70;99.90;;;;;;5054076;28;20194;-77
2023/06/30 04:07:21;;;;;;;9.50;7.47;;;16.70;99.90;;;;;;5072408;28;20218;-77
2023/06/30 04:09:48;;;;;;;10.87;8.27;;;16.80;99.90;;;;;;5071007;28;20289;-77
2023/06/30 04:12:14;;;;;;;11.80;8.20;;;16.70;99.90;;;;;;5071093;28;20197;-77
2023/06/30 04:14:41;;;;;;;11.63;8.30;;;16.80;99.90;;;;;;5070984;28;20281;-77
2023/06/30 04:17:08;;;;;;;11.10;8.03;;;16.80;99.90;;;;;;5071186;28;20662;-77
2023/06/30 04:19:36;;;;;;;11.97;7.90;;;16.80;99.90;;;;;;5072361;28;20186;-78
2023/06/30 04:22:03;;;;;;;13.47;8.17;;;16.90;99.90;;;;;;5054218;28;20253;-77
2023/06/30 04:24:31;;;;;;;10.43;7.77;;;16.90;99.90;;;;;;5072513;28;20251;-78
2023/06/30 04:26:58;;;;;;;11.23;8.27;;;16.90;99.90;;;;;;5072289;28;20213;-78
2023/06/30 04:29:25;;;;;;;10.23;7.73;;;17.00;99.90;;;;;;5072532;28;20190;-77
2023/06/30 04:31:52;;;;;;;12.00;8.00;;;17.00;99.90;;;;;;5071194;28;20240;-77
2023/06/30 04:34:20;;;;;;;9.90;7.60;;;17.10;99.90;;;;;;5070982;28;20216;-77
2023/06/30 04:36:49;;;;;;;11.17;8.33;;;17.10;99.90;;;;;;5071031;28;20202;-77
2023/06/30 04:39:16;;;;;;;13.27;8.37;;;17.20;99.90;;;;;;5072424;28;20201;-77
2023/06/30 04:41:43;;;;;;;11.30;8.20;;;17.30;99.90;;;;;;5070653;28;20643;-77
2023/06/30 04:44:10;;;;;;;15.50;8.10;;;17.30;99.90;;;;;;5070642;28;20194;-77
2023/06/30 04:46:37;;;;;;;11.33;8.03;;;17.40;99.90;;;;;;5074849;28;20286;-77
2023/06/30 04:49:04;;;;;;;10.63;8.17;;;17.50;99.90;;;;;;5092637;28;20535;-77
2023/06/30 04:51:31;;;;;;;11.77;8.07;;;17.60;99.90;;;;;;5074305;28;20205;-77
2023/06/30 04:53:58;;;;;;;10.33;7.67;;;17.50;99.90;;;;;;5092168;28;20194;-78
2023/06/30 04:56:25;;;;;;;11.73;7.90;;;17.60;99.90;;;;;;5073883;28;20217;-78
2023/06/30 04:58:53;;;;;;;9.87;7.30;;;17.70;99.90;;;;;;5073925;28;20247;-78
2023/06/30 05:01:19;;;;;;;10.93;7.80;;;17.70;99.90;;;;;;5073629;28;20304;-78
2023/06/30 05:03:47;;;;;;;10.37;7.93;;;17.80;99.90;;;;;;5077135;28;20338;-77
2023/06/30 05:06:15;;;;;;;11.43;7.60;;;17.90;99.90;;;;;;5077467;28;20222;-78
2023/06/30 05:08:42;;;;;;;15.17;8.00;;;18.00;99.90;;;;;;5077664;28;20221;-78
2023/06/30 05:11:09;;;;;;;11.07;8.00;;;18.10;99.90;;;;;;5077352;28;20240;-79
2023/06/30 05:13:36;;;;;;;12.33;8.10;;;18.10;99.90;;;;;;5096011;28;20291;-79
2023/06/30 05:16:03;;;;;;;10.67;7.13;;;18.20;99.90;;;;;;5061044;28;20235;-79
2023/06/30 05:18:30;;;;;;;10.60;7.30;;;18.40;99.90;;;;;;5044523;28;20794;-78
2023/06/30 05:20:57;;;;;;;11.57;6.97;;;18.40;99.90;;;;;;5077652;28;20324;-79
2023/06/30 05:23:24;;;;;;;12.40;7.83;;;18.50;99.90;;;;;;5077821;28;20296;-79
2023/06/30 05:25:50;;;;;;;11.57;7.30;;;18.60;99.90;;;;;;5095642;28;20220;-78
2023/06/30 05:28:18;;;;;;;10.17;7.47;;;18.70;99.90;;;;;;5095559;28;20198;-79
2023/06/30 05:30:45;;;;;;;12.30;7.77;;;18.80;99.90;;;;;;5095384;28;20205;-78
2023/06/30 05:33:12;;;;;;;10.63;7.10;;;18.80;99.90;;;;;;5077355;28;20703;-78
2023/06/30 05:35:39;;;;;;;8.90;6.63;;;18.90;99.90;;;;;;5095935;28;20627;-78
2023/06/30 05:38:05;;;;;;;11.97;7.17;;;19.00;99.90;;;;;;5095222;28;20190;-77
2023/06/30 05:40:32;;;;;;;9.13;6.53;;;19.00;99.90;;;;;;5076964;28;20237;-78
2023/06/30 05:42:59;;;;;;;9.93;6.90;;;19.10;99.90;;;;;;5095612;28;20198;-78
2023/06/30 05:45:26;;;;;;;11.97;7.00;;;19.30;99.90;;;;;;5076983;28;20213;-78
2023/06/30 05:47:53;;;;;;;9.50;6.53;;;19.30;99.90;;;;;;5076509;28;20326;-78
2023/06/30 05:50:22;;;;;;;11.37;6.20;;;19.40;99.90;;;;;;5060596;28;20233;-78
2023/06/30 05:52:50;;;;;;;11.90;6.63;;;19.50;99.90;;;;;;5076833;28;20254;-78
2023/06/30 05:55:16;;;;;;;9.67;6.20;;;19.70;99.90;;;;;;5095266;28;20271;-78
2023/06/30 05:57:43;;;;;;;14.30;6.83;;;19.80;99.90;;;;;;5060143;28;20209;-80
2023/06/30 06:00:11;;;;;;;13.53;6.43;;;19.90;99.90;;;;;;5060107;28;20267;-78
2023/06/30 06:02:38;;;;;;;12.57;6.73;;;19.90;99.90;;;;;;5076902;28;20234;-78
2023/06/30 06:05:06;;;;;;;8.97;6.03;;;19.90;99.90;;;;;;5076566;28;20677;-79
2023/06/30 06:07:33;;;;;;;9.00;5.83;;;20.00;99.90;;;;;;5076621;28;20270;-78
2023/06/30 06:10:00;;;;;;;8.53;6.30;;;20.10;99.90;;;;;;5076868;28;20212;-78
2023/06/30 06:12:27;;;;;;;8.83;5.90;;;20.10;99.90;;;;;;5076938;28;20196;-79
2023/06/30 06:14:54;;;;;;;9.90;5.90;;;20.30;99.90;;;;;;5075549;28;20201;-79
2023/06/30 06:17:21;;;;;;;10.23;5.77;;;20.50;99.90;;;;;;5077343;28;20213;-80
2023/06/30 06:19:47;;;;;;;9.17;5.73;;;20.60;99.90;;;;;;5059962;28;20193;-78
2023/06/30 06:22:14;;;;;;;9.43;5.63;;;20.70;99.90;;;;;;5076806;28;20224;-77
2023/06/30 06:24:41;;;;;;;8.10;5.20;;;20.80;99.90;;;;;;5076697;28;20189;-77
2023/06/30 06:27:09;;;;;;;7.07;4.23;;;20.80;99.90;;;;;;5076283;28;20228;-78
2023/06/30 06:29:35;;;;;;;8.83;4.80;;;20.80;99.90;;;;;;5076559;28;20205;-78
2023/06/30 06:32:02;;;;;;;8.07;5.07;;;20.90;99.90;;;;;;5059800;28;20316;-78
2023/06/30 06:34:29;;;;;;;7.60;4.73;;;21.00;99.90;;;;;;5094937;28;20554;-78
2023/06/30 06:36:56;;;;;;;8.40;4.73;;;21.10;99.90;;;;;;5094395;28;20296;-77
2023/06/30 06:39:23;;;;;;;10.40;4.73;;;21.30;99.90;;;;;;5076535;28;20288;-79
2023/06/30 06:41:50;;;;;;;6.70;4.80;;;21.50;99.90;;;;;;5076099;28;20249;-77
2023/06/30 06:44:18;;;;;;;8.90;5.00;;;21.60;99.90;;;;;;5076633;28;20641;-79
2023/06/30 06:46:44;;;;;;;9.13;5.03;;;21.60;99.90;;;;;;5072638;28;20265;-78
2023/06/30 06:49:11;;;;;;;10.93;5.20;;;21.70;99.90;;;;;;5056360;28;20579;-81
2023/06/30 06:51:38;;;;;;;11.83;5.50;;;21.80;99.90;;;;;;5072742;28;20236;-82
2023/06/30 06:54:05;;;;;;;8.57;4.53;;;21.80;99.90;;;;;;5074207;28;20731;-78
2023/06/30 06:56:32;;;;;;;6.90;4.60;;;21.90;99.90;;;;;;5074099;28;20209;-78
2023/06/30 06:58:59;;;;;;;6.30;4.70;;;22.00;99.90;;;;;;5072874;28;20665;-78
2023/06/30 07:01:26;;;;;;;8.53;4.60;;;22.10;99.90;;;;;;5056100;28;20218;-79
2023/06/30 07:03:53;;;;;;;8.03;4.60;;;22.10;99.90;;;;;;5072728;28;20225;-82
2023/06/30 07:06:21;;;;;;;7.20;4.40;;;22.20;99.90;;;;;;5055615;28;20309;-78
2023/06/30 07:08:48;;;;;;;5.80;4.30;;;22.30;99.90;;;;;;5071948;28;20226;-83
2023/06/30 07:11:15;;;;;;;5.73;4.20;;;22.40;99.90;;;;;;5073560;28;20583;-82
2023/06/30 07:13:42;;;;;;;7.43;3.97;;;22.50;99.90;;;;;;5072507;28;20182;-82
2023/06/30 07:16:10;;;;;;;6.50;4.20;;;22.70;99.90;;;;;;5073515;28;20216;-85
2023/06/30 07:18:37;;;;;;;6.97;4.13;;;22.90;99.90;;;;;;5073453;28;20201;-82
2023/06/30 07:21:04;;;;;;;5.40;4.00;;;23.00;99.90;;;;;;5072294;28;20217;-83
2023/06/30 07:23:31;;;;;;;7.03;4.33;;;23.30;99.90;;;;;;5072014;28;20423;-86
2023/06/30 07:25:58;;;;;;;6.30;4.00;;;23.50;99.90;;;;;;5055450;28;20214;-81
2023/06/30 07:28:25;;;;;;;5.80;4.07;;;23.60;99.90;;;;;;5072057;28;20214;-81
2023/06/30 07:30:52;;;;;;;7.65;4.35;;;23.70;99.90;;;;;;5071758;28;20237;-84
2023/06/30 07:33:20;;;;;;;5.97;4.13;;;23.90;99.90;;;;;;5072868;28;20193;-81
2023/06/30 07:35:47;;;;;;;7.57;3.95;;;24.00;99.90;;;;;;5072906;28;20281;-81
2023/06/30 07:38:14;;;;;;;9.20;4.05;;;24.20;99.90;;;;;;5071890;28;20647;-80
2023/06/30 07:40:41;;;;;;;6.72;3.60;;;24.30;99.90;;;;;;5071632;28;20218;-83
2023/06/30 07:43:22;;;;;;;5.57;3.58;;;24.30;99.90;;;;;;5057341;28;20243;-84
2023/06/30 07:45:49;;;;;;;7.40;3.50;;;24.40;99.90;;;;;;5072208;28;20701;-82
2023/06/30 07:48:16;;;;;;;5.63;3.85;;;24.60;99.90;;;;;;5089821;28;20236;-84
2023/06/30 07:50:43;;;;;;;7.75;4.00;;;24.70;99.90;;;;;;5093403;28;20615;-85
2023/06/30 07:53:25;;;;;;;5.35;3.72;;;24.70;99.90;;;;;;5074972;28;20223;-85
2023/06/30 07:55:51;;;;;;;5.43;3.33;;;24.70;99.90;;;;;;5075256;28;20217;-84
2023/06/30 07:58:19;;;;;;;7.55;3.50;;;24.60;99.90;;;;;;5058767;28;20201;-85
2023/06/30 08:00:45;;;;;;;6.93;3.60;;;24.70;99.90;;;;;;5093079;28;20202;-80
2023/06/30 08:03:12;;;;;;;6.57;3.35;;;24.90;99.90;;;;;;5075083;28;20254;-78
2023/06/30 08:05:40;;;;;;;4.85;3.28;;;25.10;99.90;;;;;;5074929;28;20296;-84
2023/06/30 08:08:07;;;;;;;5.57;3.60;;;25.10;99.90;;;;;;5074827;28;20270;-89
2023/06/30 08:10:34;;;;;;;7.07;3.40;;;24.90;99.90;;;;;;5075208;28;20218;-68
2023/06/30 08:13:04;;;;;;;5.68;3.05;;;24.60;99.90;;;;;;5058484;28;20296;-83
2023/06/30 08:15:31;;;;;;;5.82;3.50;;;24.50;99.90;;;;;;5092507;28;20205;-80
2023/06/30 08:17:58;;;;;;;10.90;4.07;;;24.30;99.90;;;;;;5057466;28;20229;-71
2023/06/30 08:20:25;;;;;;;4.88;3.35;;;24.30;99.90;;;;;;5092559;28;20252;-76
2023/06/30 08:22:53;;;;;;;4.03;3.20;;;24.50;99.90;;;;;;5075851;28;20200;-75
2023/06/30 08:25:23;;;;;;;5.20;3.20;;;24.50;99.90;;;;;;5075039;28;20750;-76
2023/06/30 08:27:51;;;;;;;5.60;2.95;;;24.60;99.90;;;;;;5058763;28;20217;-76
2023/06/30 08:30:18;;;;;;;6.68;3.42;;;25.00;99.90;;;;;;5075037;28;20214;-75
2023/06/30 08:32:50;;;;;;;4.07;3.10;;;25.60;99.90;;;;;;5075670;28;20223;-75
2023/06/30 08:35:17;;;;;;;5.35;3.05;;;26.10;99.90;;;;;;5058482;28;20218;-74
2023/06/30 08:37:44;;;;;;;3.47;2.70;;;26.10;99.90;;;;;;5095285;28;20263;-76
2023/06/30 08:40:12;;;;;;;5.25;2.85;;;26.70;99.90;;;;;;5078137;28;20217;-76
2023/06/30 08:42:43;;;;;;;5.35;2.90;;;26.90;99.90;;;;;;5061445;28;20232;-77
2023/06/30 08:45:13;;;;;;;6.38;2.90;;;26.80;99.90;;;;;;5078527;28;20308;-77
2023/06/30 08:47:40;;;;;;;3.65;2.88;;;26.90;99.90;;;;;;5078317;28;20232;-77
2023/06/30 08:50:08;;;;;;;3.85;2.50;;;27.10;99.90;;;;;;5078028;28;20221;-75
2023/06/30 08:52:36;;;;;;;4.07;2.85;;;27.20;99.90;;;;;;5096120;28;20219;-76
2023/06/30 08:55:05;;;;;;;4.63;2.90;;;27.10;99.90;;;;;;5096061;28;20193;-74
2023/06/30 08:57:33;;;;;;;5.93;2.80;;;26.90;99.90;;;;;;5077989;28;20189;-75
2023/06/30 09:00:00;;;;;;;4.13;2.92;;;26.60;99.90;;;;;;5061145;28;20196;-75
2023/06/30 09:02:28;;;;;;;4.65;2.72;;;26.50;99.90;;;;;;5077865;28;20193;-75
2023/06/30 09:04:56;;;;;;;5.05;2.80;;;27.10;99.90;;;;;;5077559;28;20207;-73
2023/06/30 09:07:27;;;;;;;3.55;2.70;;;27.30;99.90;;;;;;5096010;28;20708;-74
2023/06/30 09:09:58;;;;;;;5.00;3.08;;;27.40;99.90;;;;;;5078121;28;20201;-74
2023/06/30 09:12:27;;;;;;;3.88;2.90;;;27.50;99.90;;;;;;5096005;28;20534;-76
2023/06/30 09:14:58;;;;;;;4.65;3.22;;;27.70;99.90;;;;;;5095598;28;20707;-74
2023/06/30 09:17:26;;;;;;;5.40;2.80;;;28.20;99.90;;;;;;5095335;28;20198;-76
2023/06/30 09:19:53;;;;;;;5.47;2.90;;;28.50;99.90;;;;;;5077251;28;20209;-76
2023/06/30 09:22:20;;;;;;;5.10;2.83;;;28.60;99.90;;;;;;5077453;28;20217;-77
2023/06/30 09:25:27;;;;;;;4.25;2.83;;;28.80;99.90;;;;;;5080773;28;20218;-78
2023/06/30 09:27:55;;;;;;;5.88;2.80;;;28.20;98.80;;;;;;5077167;28;20225;-74
2023/06/30 09:30:37;;;;;;;5.05;3.25;;;27.70;99.40;;;;;;5095264;28;20202;-74
2023/06/30 09:33:05;;;;;;;4.70;2.75;;;27.30;99.50;;;;;;5060909;28;20197;-78
2023/06/30 09:35:40;;;;;;;3.67;2.65;;;27.30;99.80;;;;;;5095376;28;20205;-76
2023/06/30 09:38:14;;;;;;;4.35;2.90;;;27.60;98.80;;;;;;5077302;28;20199;-75
2023/06/30 09:40:46;;;;;;;4.22;2.65;;;27.70;99.50;;;;;;5076872;28;20244;-76
2023/06/30 09:43:17;;;;;;;3.13;2.60;;;27.50;98.80;;;;;;5095409;28;20174;-75
2023/06/30 09:45:53;;;;;;;6.13;3.08;;;27.20;97.40;;;;;;5076542;28;20588;-75
2023/06/30 09:48:20;;;;;;;4.55;2.80;;;26.90;99.70;;;;;;5076440;28;20754;-74
2023/06/30 09:50:47;;;;;;;4.18;2.80;;;27.30;99.30;;;;;;5077173;28;20236;-76
2023/06/30 09:53:20;;;;;;;4.95;2.90;;;27.80;98.60;;;;;;5076936;28;20231;-79
2023/06/30 09:55:49;;;;;;;5.30;2.72;;;28.30;97.30;;;;;;5060047;28;20218;-76
2023/06/30 09:58:18;;;;;;;3.78;2.50;;;28.90;96.80;;;;;;5076888;28;20637;-77
2023/06/30 10:00:46;;;;;;;3.80;2.58;;;29.40;96.20;;;;;;5060905;28;20221;-77
2023/06/30 10:03:16;;;;;;;5.72;3.08;;;29.50;95.40;;;;;;5077036;28;20193;-76
2023/06/30 10:05:48;;;;;;;6.13;2.58;;;29.40;93.20;;;;;;5060354;28;20312;-77
2023/06/30 10:08:16;;;;;;;3.70;2.55;;;29.60;93.00;;;;;;5094395;28;20217;-77
2023/06/30 10:10:43;;;;;;;5.10;2.50;;;29.80;92.40;;;;;;5076528;28;20255;-78
2023/06/30 10:13:15;;;;;;;4.90;2.70;;;30.40;91.30;;;;;;5076846;28;20315;-79
2023/06/30 10:15:43;;;;;;;6.25;2.40;;;30.90;90.00;;;;;;5076892;28;20213;-77
2023/06/30 10:18:12;;;;;;;3.95;2.60;;;30.90;88.00;;;;;;5060305;28;20194;-78
2023/06/30 10:20:40;;;;;;;5.88;2.72;;;30.50;83.60;;;;;;5076363;28;20221;-78
2023/06/30 10:23:16;;;;;;;3.60;2.47;;;30.30;86.50;;;;;;5076693;28;20397;-78
2023/06/30 10:25:43;;;;;;;11.57;3.22;;;29.90;83.00;;;;;;5094376;28;20367;-78
2023/06/30 10:28:11;;;;;;;5.45;2.70;;;29.70;84.00;;;;;;5059440;28;20209;-78
2023/06/30 10:30:39;;;;;;;12.25;3.20;;;30.30;87.00;;;;;;5076138;28;20245;-78
2023/06/30 10:33:06;;;;;;;3.65;2.30;;;31.00;84.80;;;;;;5075803;28;20231;-79
2023/06/30 10:35:34;;;;;;;3.45;2.40;;;31.40;78.70;;;;;;5094135;28;20688;-80
2023/06/30 10:38:01;;;;;;;5.93;2.80;;;31.20;76.50;;;;;;5059290;28;20700;-78
2023/06/30 10:40:30;;;;;;;5.10;2.65;;;30.80;78.00;;;;;;5093972;28;20260;-80
2023/06/30 10:42:58;;;;;;;3.60;2.47;;;30.90;81.20;;;;;;5075974;28;20220;-78
2023/06/30 10:45:49;;;;;;;2.75;2.20;;;31.40;80.40;;;;;;5093714;28;20213;-81
2023/06/30 10:48:16;;;;;;;3.67;2.30;;;31.60;76.60;;;;;;5086558;28;20750;-80
2023/06/30 10:50:44;;;;;;;3.67;2.50;;;32.00;80.00;;;;;;5076039;28;20214;-79
2023/06/30 10:53:18;;;;;;;4.88;2.40;;;32.30;76.40;;;;;;5075902;28;20201;-81
2023/06/30 10:55:45;;;;;;;4.95;2.50;;;32.80;77.10;;;;;;5075787;28;20221;-82
2023/06/30 10:58:23;;;;;;;2.88;2.20;;;32.50;68.20;;;;;;5075966;28;20215;-87
2023/06/30 11:01:04;;;;;;;2.70;2.10;;;32.20;68.40;;;;;;5074862;28;20560;-88
2023/06/30 11:03:56;;;;;;;3.63;2.40;;;32.20;68.70;;;;;;5093725;28;20664;-87
2023/06/30 11:06:25;;;;;;;5.30;2.90;;;32.20;69.00;;;;;;5059658;28;20272;-87
2023/06/30 11:09:09;;;;;;;2.85;2.15;;;32.70;68.70;;;;;;5058874;28;20220;-88
2023/06/30 11:11:50;;;;;;;3.25;2.20;;;32.90;67.50;;;;;;5075788;28;20593;-89
2023/06/30 11:14:34;;;;;;;4.63;2.40;;;33.50;67.80;;;;;;5058939;28;20610;-89
2023/06/30 11:17:07;;;;;;;4.53;2.75;;;33.60;68.90;;;;;;5093745;28;20202;-88
2023/06/30 11:19:36;;;;;;;4.57;2.33;;;33.50;68.30;;;;;;5075806;28;20208;-88
2023/06/30 11:22:23;;;;;;;5.32;2.63;;;33.10;68.60;;;;;;5059225;28;20300;-82
2023/06/30 11:24:50;;;;;;;3.90;2.50;;;33.00;69.60;;;;;;5075223;28;20205;-82
2023/06/30 11:27:18;;;;;;;5.07;2.80;;;32.90;69.20;;;;;;5075296;28;20625;-82
2023/06/30 11:29:53;;;;;;;4.63;2.42;;;33.10;69.80;;;;;;5093346;28;20287;-82
2023/06/30 11:32:28;;;;;;;3.60;2.40;;;33.50;69.20;;;;;;5075016;28;20199;-85
2023/06/30 11:34:56;;;;;;;3.45;2.60;;;33.70;68.40;;;;;;5075189;28;20193;-80
2023/06/30 11:37:24;;;;;;;3.65;2.65;;;33.80;65.10;;;;;;5075359;28;20281;-81
2023/06/30 11:39:53;;;;;;;3.75;2.70;;;34.00;65.10;;;;;;5074944;28;20251;-83
2023/06/30 11:42:20;;;;;;;4.15;2.47;;;34.10;66.10;;;;;;5074892;28;20292;-83
2023/06/30 11:44:51;;;;;;;3.30;2.42;;;34.00;66.00;;;;;;5057547;28;20205;-81
2023/06/30 11:47:19;;;;;;;4.38;2.38;;;34.50;65.90;;;;;;5092579;28;20221;-81
2023/06/30 11:49:48;;;;;;;3.15;2.40;;;34.90;61.40;;;;;;5092807;28;20668;-81
2023/06/30 11:52:17;;;;;;;5.13;2.50;;;35.30;61.30;;;;;;5074634;28;20575;-82
2023/06/30 11:54:44;;;;;;;11.05;2.97;;;35.30;59.00;;;;;;5058522;28;20660;-84
2023/06/30 11:57:11;;;;;;;4.32;2.50;;;35.00;58.90;;;;;;5074646;28;20201;-85
2023/06/30 11:59:38;;;;;;;3.03;2.22;;;35.10;58.90;;;;;;5074851;28;20193;-81
2023/06/30 12:02:05;;;;;;;4.65;2.22;;;35.20;59.20;;;;;;5092907;28;20210;-84
2023/06/30 12:04:34;;;;;;;8.48;2.33;;;35.70;59.20;;;;;;5074535;28;20288;-84
2023/06/30 12:07:04;;;;;;;4.38;2.60;;;35.60;57.70;;;;;;5074652;28;20309;-82
2023/06/30 12:09:34;;;;;;;4.07;2.40;;;35.40;56.00;;;;;;5074468;28;20316;-80
2023/06/30 12:12:02;;;;;;;3.22;2.47;;;34.60;56.90;;;;;;5074826;28;20549;-82
2023/06/30 12:14:29;;;;;;;4.22;2.25;;;34.60;57.40;;;;;;5074782;28;20229;-81
2023/06/30 12:16:57;;;;;;;4.10;2.20;;;34.20;56.50;;;;;;5092642;28;20718;-81
2023/06/30 12:19:28;;;;;;;4.88;2.50;;;33.40;58.50;;;;;;5075011;28;20182;-83
2023/06/30 12:21:57;;;;;;;3.95;2.28;;;34.10;58.70;;;;;;5092809;28;20240;-85
2023/06/30 12:24:24;;;;;;;3.17;2.50;;;34.20;57.60;;;;;;5092501;28;20272;-80
2023/06/30 12:26:51;;;;;;;2.55;2.35;;;34.60;56.90;;;;;;5074402;28;20216;-81
2023/06/30 12:29:18;;;;;;;5.97;2.60;;;35.10;56.00;;;;;;5092681;28;20209;-83
2023/06/30 12:31:47;;;;;;;4.45;2.70;;;35.40;56.10;;;;;;5057770;28;20262;-84
2023/06/30 12:34:31;;;;;;;3.90;2.65;;;34.20;57.30;;;;;;5074512;28;20671;-87
2023/06/30 12:36:59;;;;;;;3.20;2.35;;;35.00;55.50;;;;;;5074270;28;20217;-86
2023/06/30 12:39:26;;;;;;;2.63;2.42;;;34.60;55.70;;;;;;5074489;28;20197;-85
2023/06/30 12:41:53;;;;;;;3.08;2.67;;;34.60;54.20;;;;;;5058050;28;20646;-90
2023/06/30 12:44:20;;;;;;;3.35;2.50;;;34.00;54.90;;;;;;5074716;28;20193;-88
2023/06/30 12:47:05;;;;;;;3.65;2.90;;;34.10;55.90;;;;;;5092086;28;20233;-88
2023/06/30 12:49:33;;;;;;;4.15;2.70;;;34.00;55.90;;;;;;5057855;28;20244;-90
2023/06/30 12:52:00;;;;;;;4.65;2.88;;;33.50;56.80;;;;;;5073851;28;20224;-88